sensor_id;sensor_type;location;lat;lon;timestamp;P1;durP1;ratioP1;P2;durP2;ratioP2
63320;SDS011;49449;48.800;9.534;2022-08-21T00:00:28;4.13;;;2.65;;
63320;SDS011;49449;48.800;9.534;2022-08-21T00:02:59;5.95;;;2.70;;
63320;SDS011;49449;48.800;9.534;2022-08-21T00:05:28;4.00;;;2.40;;
63320;SDS011;49449;48.800;9.534;2022-08-21T00:07:58;3.22;;;2.15;;
63320;SDS011;49449;48.800;9.534;2022-08-21T00:10:26;3.22;;;1.88;;
63320;SDS011;49449;48.800;9.534;2022-08-21T00:12:53;3.92;;;2.20;;
63320;SDS011;49449;48.800;9.534;2022-08-21T00:15:22;3.10;;;2.40;;
63320;SDS011;49449;48.800;9.534;2022-08-21T00:17:52;3.08;;;2.30;;
63320;SDS011;49449;48.800;9.534;2022-08-21T00:20:20;3.28;;;2.45;;
63320;SDS011;49449;48.800;9.534;2022-08-21T00:22:49;2.40;;;2.20;;
63320;SDS011;49449;48.800;9.534;2022-08-21T00:25:19;4.00;;;3.08;;
63320;SDS011;49449;48.800;9.534;2022-08-21T00:27:48;5.07;;;2.25;;
63320;SDS011;49449;48.800;9.534;2022-08-21T00:30:17;3.22;;;2.35;;
63320;SDS011;49449;48.800;9.534;2022-08-21T00:32:46;32.58;;;2.85;;
63320;SDS011;49449;48.800;9.534;2022-08-21T00:35:15;3.80;;;2.30;;
63320;SDS011;49449;48.800;9.534;2022-08-21T00:37:44;3.75;;;2.40;;
63320;SDS011;49449;48.800;9.534;2022-08-21T00:40:13;5.53;;;2.05;;
63320;SDS011;49449;48.800;9.534;2022-08-21T00:42:45;10.18;;;2.63;;
63320;SDS011;49449;48.800;9.534;2022-08-21T00:45:13;4.50;;;2.25;;
63320;SDS011;49449;48.800;9.534;2022-08-21T00:47:41;7.05;;;2.30;;
63320;SDS011;49449;48.800;9.534;2022-08-21T00:50:09;3.35;;;2.10;;
63320;SDS011;49449;48.800;9.534;2022-08-21T00:52:38;2.58;;;1.90;;
63320;SDS011;49449;48.800;9.534;2022-08-21T00:55:09;5.32;;;2.10;;
63320;SDS011;49449;48.800;9.534;2022-08-21T00:57:39;3.45;;;1.98;;
63320;SDS011;49449;48.800;9.534;2022-08-21T01:00:14;3.83;;;2.33;;
63320;SDS011;49449;48.800;9.534;2022-08-21T01:02:45;2.30;;;1.83;;
63320;SDS011;49449;48.800;9.534;2022-08-21T01:05:13;2.30;;;2.10;;
63320;SDS011;49449;48.800;9.534;2022-08-21T01:07:42;2.00;;;1.90;;
63320;SDS011;49449;48.800;9.534;2022-08-21T01:10:11;3.08;;;2.10;;
63320;SDS011;49449;48.800;9.534;2022-08-21T01:12:40;3.75;;;2.20;;
63320;SDS011;49449;48.800;9.534;2022-08-21T01:15:09;3.28;;;2.10;;
63320;SDS011;49449;48.800;9.534;2022-08-21T01:17:38;2.03;;;1.83;;
63320;SDS011;49449;48.800;9.534;2022-08-21T01:20:07;3.38;;;1.75;;
63320;SDS011;49449;48.800;9.534;2022-08-21T01:22:38;27.92;;;2.25;;
63320;SDS011;49449;48.800;9.534;2022-08-21T01:25:06;5.95;;;1.95;;
63320;SDS011;49449;48.800;9.534;2022-08-21T01:27:35;9.93;;;2.13;;
63320;SDS011;49449;48.800;9.534;2022-08-21T01:30:07;7.70;;;1.90;;
63320;SDS011;49449;48.800;9.534;2022-08-21T01:32:37;5.63;;;2.00;;
63320;SDS011;49449;48.800;9.534;2022-08-21T01:35:05;4.10;;;1.92;;
63320;SDS011;49449;48.800;9.534;2022-08-21T01:37:34;14.90;;;2.20;;
63320;SDS011;49449;48.800;9.534;2022-08-21T01:40:04;3.70;;;2.13;;
63320;SDS011;49449;48.800;9.534;2022-08-21T01:42:33;16.67;;;2.05;;
63320;SDS011;49449;48.800;9.534;2022-08-21T01:45:01;2.80;;;1.60;;
63320;SDS011;49449;48.800;9.534;2022-08-21T01:47:30;3.72;;;1.63;;
63320;SDS011;49449;48.800;9.534;2022-08-21T01:49:58;1.70;;;1.50;;
63320;SDS011;49449;48.800;9.534;2022-08-21T01:52:26;2.42;;;2.22;;
63320;SDS011;49449;48.800;9.534;2022-08-21T01:54:55;2.08;;;1.80;;
63320;SDS011;49449;48.800;9.534;2022-08-21T01:57:24;1.90;;;1.80;;
63320;SDS011;49449;48.800;9.534;2022-08-21T01:59:52;9.18;;;1.80;;
63320;SDS011;49449;48.800;9.534;2022-08-21T02:02:20;1.95;;;1.58;;
63320;SDS011;49449;48.800;9.534;2022-08-21T02:04:48;3.75;;;1.58;;
63320;SDS011;49449;48.800;9.534;2022-08-21T02:07:16;3.88;;;1.40;;
63320;SDS011;49449;48.800;9.534;2022-08-21T02:09:44;2.08;;;1.30;;
63320;SDS011;49449;48.800;9.534;2022-08-21T02:12:13;15.27;;;1.83;;
63320;SDS011;49449;48.800;9.534;2022-08-21T02:14:42;5.85;;;1.42;;
63320;SDS011;49449;48.800;9.534;2022-08-21T02:17:09;2.78;;;1.35;;
63320;SDS011;49449;48.800;9.534;2022-08-21T02:19:37;2.15;;;1.38;;
63320;SDS011;49449;48.800;9.534;2022-08-21T02:22:06;1.60;;;1.50;;
63320;SDS011;49449;48.800;9.534;2022-08-21T02:24:35;1.60;;;1.48;;
63320;SDS011;49449;48.800;9.534;2022-08-21T02:27:03;1.73;;;1.25;;
63320;SDS011;49449;48.800;9.534;2022-08-21T02:29:31;1.17;;;1.17;;
63320;SDS011;49449;48.800;9.534;2022-08-21T02:32:00;5.97;;;1.48;;
63320;SDS011;49449;48.800;9.534;2022-08-21T02:34:28;1.60;;;1.42;;
63320;SDS011;49449;48.800;9.534;2022-08-21T02:36:55;2.05;;;1.92;;
63320;SDS011;49449;48.800;9.534;2022-08-21T02:39:23;1.65;;;1.48;;
63320;SDS011;49449;48.800;9.534;2022-08-21T02:41:51;4.30;;;1.63;;
63320;SDS011;49449;48.800;9.534;2022-08-21T02:44:19;1.80;;;1.58;;
63320;SDS011;49449;48.800;9.534;2022-08-21T02:46:46;22.50;;;2.00;;
63320;SDS011;49449;48.800;9.534;2022-08-21T02:49:16;3.75;;;1.85;;
63320;SDS011;49449;48.800;9.534;2022-08-21T02:51:43;2.63;;;1.77;;
63320;SDS011;49449;48.800;9.534;2022-08-21T02:54:11;1.60;;;1.50;;
63320;SDS011;49449;48.800;9.534;2022-08-21T02:56:39;1.50;;;1.40;;
63320;SDS011;49449;48.800;9.534;2022-08-21T02:59:07;2.13;;;1.95;;
63320;SDS011;49449;48.800;9.534;2022-08-21T03:01:34;3.63;;;1.42;;
63320;SDS011;49449;48.800;9.534;2022-08-21T03:04:03;1.75;;;1.58;;
63320;SDS011;49449;48.800;9.534;2022-08-21T03:06:32;4.05;;;1.65;;
63320;SDS011;49449;48.800;9.534;2022-08-21T03:09:00;5.63;;;1.70;;
63320;SDS011;49449;48.800;9.534;2022-08-21T03:11:27;2.97;;;1.42;;
63320;SDS011;49449;48.800;9.534;2022-08-21T03:13:55;3.05;;;1.50;;
63320;SDS011;49449;48.800;9.534;2022-08-21T03:16:23;3.72;;;1.42;;
63320;SDS011;49449;48.800;9.534;2022-08-21T03:18:51;2.75;;;1.48;;
63320;SDS011;49449;48.800;9.534;2022-08-21T03:21:19;3.13;;;1.70;;
63320;SDS011;49449;48.800;9.534;2022-08-21T03:23:48;3.17;;;1.90;;
63320;SDS011;49449;48.800;9.534;2022-08-21T03:26:16;2.08;;;1.88;;
63320;SDS011;49449;48.800;9.534;2022-08-21T03:28:44;2.00;;;1.90;;
63320;SDS011;49449;48.800;9.534;2022-08-21T03:31:11;2.55;;;2.00;;
63320;SDS011;49449;48.800;9.534;2022-08-21T03:33:39;4.10;;;2.10;;
63320;SDS011;49449;48.800;9.534;2022-08-21T03:36:07;3.15;;;2.42;;
63320;SDS011;49449;48.800;9.534;2022-08-21T03:38:36;6.57;;;2.00;;
63320;SDS011;49449;48.800;9.534;2022-08-21T03:41:06;2.00;;;1.90;;
63320;SDS011;49449;48.800;9.534;2022-08-21T03:43:34;13.52;;;2.15;;
63320;SDS011;49449;48.800;9.534;2022-08-21T03:46:03;24.35;;;2.42;;
63320;SDS011;49449;48.800;9.534;2022-08-21T03:48:32;4.95;;;2.08;;
63320;SDS011;49449;48.800;9.534;2022-08-21T03:51:01;19.10;;;1.92;;
63320;SDS011;49449;48.800;9.534;2022-08-21T03:53:29;3.60;;;1.70;;
63320;SDS011;49449;48.800;9.534;2022-08-21T03:55:57;2.53;;;1.60;;
63320;SDS011;49449;48.800;9.534;2022-08-21T03:58:27;2.60;;;1.60;;
63320;SDS011;49449;48.800;9.534;2022-08-21T04:00:57;2.15;;;1.50;;
63320;SDS011;49449;48.800;9.534;2022-08-21T04:03:26;5.07;;;1.85;;
63320;SDS011;49449;48.800;9.534;2022-08-21T04:05:55;3.42;;;1.40;;
63320;SDS011;49449;48.800;9.534;2022-08-21T04:08:23;4.50;;;1.27;;
63320;SDS011;49449;48.800;9.534;2022-08-21T04:10:51;4.40;;;1.70;;
63320;SDS011;49449;48.800;9.534;2022-08-21T04:13:21;1.50;;;1.40;;
63320;SDS011;49449;48.800;9.534;2022-08-21T04:15:50;2.20;;;1.25;;
63320;SDS011;49449;48.800;9.534;2022-08-21T04:18:18;1.85;;;1.67;;
63320;SDS011;49449;48.800;9.534;2022-08-21T04:20:46;1.83;;;1.50;;
63320;SDS011;49449;48.800;9.534;2022-08-21T04:23:17;3.33;;;1.50;;
63320;SDS011;49449;48.800;9.534;2022-08-21T04:25:45;1.58;;;1.27;;
63320;SDS011;49449;48.800;9.534;2022-08-21T04:28:13;1.50;;;0.98;;
63320;SDS011;49449;48.800;9.534;2022-08-21T04:30:40;1.40;;;1.30;;
63320;SDS011;49449;48.800;9.534;2022-08-21T04:33:10;1.15;;;1.13;;
63320;SDS011;49449;48.800;9.534;2022-08-21T04:35:38;1.08;;;1.08;;
63320;SDS011;49449;48.800;9.534;2022-08-21T04:38:05;1.60;;;1.50;;
63320;SDS011;49449;48.800;9.534;2022-08-21T04:40:33;1.90;;;1.77;;
63320;SDS011;49449;48.800;9.534;2022-08-21T04:43:02;1.95;;;1.85;;
63320;SDS011;49449;48.800;9.534;2022-08-21T04:45:31;2.17;;;1.63;;
63320;SDS011;49449;48.800;9.534;2022-08-21T04:48:03;1.85;;;1.52;;
63320;SDS011;49449;48.800;9.534;2022-08-21T04:50:38;3.60;;;1.42;;
63320;SDS011;49449;48.800;9.534;2022-08-21T04:53:10;2.92;;;1.42;;
63320;SDS011;49449;48.800;9.534;2022-08-21T04:55:41;4.40;;;1.73;;
63320;SDS011;49449;48.800;9.534;2022-08-21T04:58:11;1.52;;;1.42;;
63320;SDS011;49449;48.800;9.534;2022-08-21T05:00:42;8.45;;;1.65;;
63320;SDS011;49449;48.800;9.534;2022-08-21T05:03:11;1.77;;;1.67;;
63320;SDS011;49449;48.800;9.534;2022-08-21T05:05:41;2.35;;;1.75;;
63320;SDS011;49449;48.800;9.534;2022-08-21T05:08:09;2.05;;;1.60;;
63320;SDS011;49449;48.800;9.534;2022-08-21T05:10:41;2.00;;;1.90;;
63320;SDS011;49449;48.800;9.534;2022-08-21T05:13:10;1.58;;;1.50;;
63320;SDS011;49449;48.800;9.534;2022-08-21T05:15:40;2.60;;;1.60;;
63320;SDS011;49449;48.800;9.534;2022-08-21T05:18:09;1.60;;;1.50;;
63320;SDS011;49449;48.800;9.534;2022-08-21T05:20:37;2.78;;;1.77;;
63320;SDS011;49449;48.800;9.534;2022-08-21T05:23:08;1.48;;;1.42;;
63320;SDS011;49449;48.800;9.534;2022-08-21T05:25:37;1.67;;;1.58;;
63320;SDS011;49449;48.800;9.534;2022-08-21T05:28:07;1.40;;;1.30;;
63320;SDS011;49449;48.800;9.534;2022-08-21T05:30:35;1.35;;;1.35;;
63320;SDS011;49449;48.800;9.534;2022-08-21T05:33:04;1.90;;;1.60;;
63320;SDS011;49449;48.800;9.534;2022-08-21T05:35:33;1.30;;;1.30;;
63320;SDS011;49449;48.800;9.534;2022-08-21T05:38:01;1.50;;;1.38;;
63320;SDS011;49449;48.800;9.534;2022-08-21T05:40:31;1.73;;;1.63;;
63320;SDS011;49449;48.800;9.534;2022-08-21T05:43:00;1.25;;;1.25;;
63320;SDS011;49449;48.800;9.534;2022-08-21T05:45:29;1.83;;;1.73;;
63320;SDS011;49449;48.800;9.534;2022-08-21T05:48:04;3.05;;;1.48;;
63320;SDS011;49449;48.800;9.534;2022-08-21T05:50:33;1.52;;;1.40;;
63320;SDS011;49449;48.800;9.534;2022-08-21T05:53:01;1.30;;;1.30;;
63320;SDS011;49449;48.800;9.534;2022-08-21T05:55:29;2.33;;;1.50;;
63320;SDS011;49449;48.800;9.534;2022-08-21T05:57:58;1.27;;;1.27;;
63320;SDS011;49449;48.800;9.534;2022-08-21T06:00:26;1.55;;;1.50;;
63320;SDS011;49449;48.800;9.534;2022-08-21T06:02:54;1.42;;;1.38;;
63320;SDS011;49449;48.800;9.534;2022-08-21T06:05:23;1.75;;;1.65;;
63320;SDS011;49449;48.800;9.534;2022-08-21T06:07:50;1.95;;;1.85;;
63320;SDS011;49449;48.800;9.534;2022-08-21T06:10:18;1.85;;;1.58;;
63320;SDS011;49449;48.800;9.534;2022-08-21T06:12:46;1.92;;;1.83;;
63320;SDS011;49449;48.800;9.534;2022-08-21T06:15:15;2.10;;;1.95;;
63320;SDS011;49449;48.800;9.534;2022-08-21T06:17:43;3.20;;;1.80;;
63320;SDS011;49449;48.800;9.534;2022-08-21T06:20:11;3.40;;;2.05;;
63320;SDS011;49449;48.800;9.534;2022-08-21T06:22:39;2.33;;;1.90;;
63320;SDS011;49449;48.800;9.534;2022-08-21T06:25:07;1.75;;;1.58;;
63320;SDS011;49449;48.800;9.534;2022-08-21T06:27:35;1.70;;;1.60;;
63320;SDS011;49449;48.800;9.534;2022-08-21T06:30:04;2.22;;;2.13;;
63320;SDS011;49449;48.800;9.534;2022-08-21T06:32:34;3.08;;;2.00;;
63320;SDS011;49449;48.800;9.534;2022-08-21T06:35:02;2.00;;;1.90;;
63320;SDS011;49449;48.800;9.534;2022-08-21T06:37:31;2.03;;;1.92;;
63320;SDS011;49449;48.800;9.534;2022-08-21T06:39:59;2.25;;;1.95;;
63320;SDS011;49449;48.800;9.534;2022-08-21T06:42:27;1.55;;;1.50;;
63320;SDS011;49449;48.800;9.534;2022-08-21T06:44:55;1.75;;;1.65;;
63320;SDS011;49449;48.800;9.534;2022-08-21T06:47:24;2.15;;;2.05;;
63320;SDS011;49449;48.800;9.534;2022-08-21T06:49:53;1.90;;;1.80;;
63320;SDS011;49449;48.800;9.534;2022-08-21T06:52:21;1.75;;;1.65;;
63320;SDS011;49449;48.800;9.534;2022-08-21T06:54:49;2.00;;;1.90;;
63320;SDS011;49449;48.800;9.534;2022-08-21T06:57:17;2.08;;;1.88;;
63320;SDS011;49449;48.800;9.534;2022-08-21T06:59:45;2.00;;;1.90;;
63320;SDS011;49449;48.800;9.534;2022-08-21T07:02:12;1.80;;;1.70;;
63320;SDS011;49449;48.800;9.534;2022-08-21T07:04:40;2.10;;;2.00;;
63320;SDS011;49449;48.800;9.534;2022-08-21T07:07:09;1.70;;;1.60;;
63320;SDS011;49449;48.800;9.534;2022-08-21T07:09:37;2.00;;;1.90;;
63320;SDS011;49449;48.800;9.534;2022-08-21T07:12:05;1.83;;;1.73;;
63320;SDS011;49449;48.800;9.534;2022-08-21T07:14:34;4.28;;;2.08;;
63320;SDS011;49449;48.800;9.534;2022-08-21T07:17:01;2.20;;;2.00;;
63320;SDS011;49449;48.800;9.534;2022-08-21T07:19:30;2.15;;;1.95;;
63320;SDS011;49449;48.800;9.534;2022-08-21T07:21:58;1.80;;;1.70;;
63320;SDS011;49449;48.800;9.534;2022-08-21T07:24:29;2.53;;;1.90;;
63320;SDS011;49449;48.800;9.534;2022-08-21T07:26:57;2.38;;;2.17;;
63320;SDS011;49449;48.800;9.534;2022-08-21T07:29:25;2.90;;;2.70;;
63320;SDS011;49449;48.800;9.534;2022-08-21T07:31:53;2.30;;;2.10;;
63320;SDS011;49449;48.800;9.534;2022-08-21T07:34:21;2.50;;;2.30;;
63320;SDS011;49449;48.800;9.534;2022-08-21T07:36:49;2.80;;;2.13;;
63320;SDS011;49449;48.800;9.534;2022-08-21T07:39:16;2.55;;;2.35;;
63320;SDS011;49449;48.800;9.534;2022-08-21T07:41:45;2.55;;;2.05;;
63320;SDS011;49449;48.800;9.534;2022-08-21T07:44:13;2.40;;;2.20;;
63320;SDS011;49449;48.800;9.534;2022-08-21T07:46:41;2.30;;;2.10;;
63320;SDS011;49449;48.800;9.534;2022-08-21T07:49:09;2.00;;;1.88;;
63320;SDS011;49449;48.800;9.534;2022-08-21T07:51:37;3.35;;;2.30;;
63320;SDS011;49449;48.800;9.534;2022-08-21T07:54:05;3.75;;;2.30;;
63320;SDS011;49449;48.800;9.534;2022-08-21T07:56:32;3.03;;;2.40;;
63320;SDS011;49449;48.800;9.534;2022-08-21T07:59:02;3.72;;;2.17;;
63320;SDS011;49449;48.800;9.534;2022-08-21T08:01:30;2.00;;;1.83;;
63320;SDS011;49449;48.800;9.534;2022-08-21T08:03:58;4.75;;;2.30;;
63320;SDS011;49449;48.800;9.534;2022-08-21T08:06:25;3.67;;;2.40;;
63320;SDS011;49449;48.800;9.534;2022-08-21T08:08:53;2.75;;;2.55;;
63320;SDS011;49449;48.800;9.534;2022-08-21T08:11:21;3.83;;;2.53;;
63320;SDS011;49449;48.800;9.534;2022-08-21T08:13:51;2.28;;;2.08;;
63320;SDS011;49449;48.800;9.534;2022-08-21T08:16:20;3.58;;;2.67;;
63320;SDS011;49449;48.800;9.534;2022-08-21T08:18:48;3.50;;;2.35;;
63320;SDS011;49449;48.800;9.534;2022-08-21T08:21:17;2.70;;;2.40;;
63320;SDS011;49449;48.800;9.534;2022-08-21T08:23:47;5.40;;;2.70;;
63320;SDS011;49449;48.800;9.534;2022-08-21T08:26:14;4.90;;;2.58;;
63320;SDS011;49449;48.800;9.534;2022-08-21T08:28:43;4.32;;;2.60;;
63320;SDS011;49449;48.800;9.534;2022-08-21T08:31:12;3.67;;;2.65;;
63320;SDS011;49449;48.800;9.534;2022-08-21T08:33:42;3.45;;;2.60;;
63320;SDS011;49449;48.800;9.534;2022-08-21T08:36:13;3.97;;;2.58;;
63320;SDS011;49449;48.800;9.534;2022-08-21T08:38:43;4.50;;;2.97;;
63320;SDS011;49449;48.800;9.534;2022-08-21T08:41:12;4.25;;;2.72;;
63320;SDS011;49449;48.800;9.534;2022-08-21T08:43:44;3.53;;;2.50;;
63320;SDS011;49449;48.800;9.534;2022-08-21T08:46:16;4.63;;;2.90;;
63320;SDS011;49449;48.800;9.534;2022-08-21T08:48:50;3.42;;;2.92;;
63320;SDS011;49449;48.800;9.534;2022-08-21T08:51:21;5.82;;;3.00;;
63320;SDS011;49449;48.800;9.534;2022-08-21T08:53:54;4.30;;;2.72;;
63320;SDS011;49449;48.800;9.534;2022-08-21T08:56:28;2.88;;;2.63;;
63320;SDS011;49449;48.800;9.534;2022-08-21T08:58:59;4.47;;;2.97;;
63320;SDS011;49449;48.800;9.534;2022-08-21T09:01:30;6.35;;;3.17;;
63320;SDS011;49449;48.800;9.534;2022-08-21T09:04:02;5.88;;;3.20;;
63320;SDS011;49449;48.800;9.534;2022-08-21T09:06:34;3.10;;;2.80;;
63320;SDS011;49449;48.800;9.534;2022-08-21T09:09:15;3.53;;;2.97;;
63320;SDS011;49449;48.800;9.534;2022-08-21T09:11:56;4.32;;;3.17;;
63320;SDS011;49449;48.800;9.534;2022-08-21T09:14:32;4.90;;;3.33;;
63320;SDS011;49449;48.800;9.534;2022-08-21T09:17:18;5.55;;;3.40;;
63320;SDS011;49449;48.800;9.534;2022-08-21T09:19:58;4.18;;;3.38;;
63320;SDS011;49449;48.800;9.534;2022-08-21T09:22:42;4.40;;;2.90;;
63320;SDS011;49449;48.800;9.534;2022-08-21T09:25:18;3.58;;;3.10;;
63320;SDS011;49449;48.800;9.534;2022-08-21T09:27:49;3.80;;;2.80;;
63320;SDS011;49449;48.800;9.534;2022-08-21T09:30:18;2.85;;;2.47;;
63320;SDS011;49449;48.800;9.534;2022-08-21T09:32:50;4.15;;;3.00;;
63320;SDS011;49449;48.800;9.534;2022-08-21T09:35:20;4.63;;;2.90;;
63320;SDS011;49449;48.800;9.534;2022-08-21T09:37:51;4.05;;;3.22;;
63320;SDS011;49449;48.800;9.534;2022-08-21T09:42:57;6.07;;;2.88;;
63320;SDS011;49449;48.800;9.534;2022-08-21T09:45:26;4.78;;;3.45;;
63320;SDS011;49449;48.800;9.534;2022-08-21T09:47:54;4.40;;;3.15;;
63320;SDS011;49449;48.800;9.534;2022-08-21T09:50:25;4.15;;;3.53;;
63320;SDS011;49449;48.800;9.534;2022-08-21T09:52:55;4.53;;;3.10;;
63320;SDS011;49449;48.800;9.534;2022-08-21T09:55:30;5.03;;;3.10;;
63320;SDS011;49449;48.800;9.534;2022-08-21T09:58:18;4.53;;;3.10;;
63320;SDS011;49449;48.800;9.534;2022-08-21T10:00:56;4.00;;;2.88;;
63320;SDS011;49449;48.800;9.534;2022-08-21T10:03:26;5.05;;;2.92;;
63320;SDS011;49449;48.800;9.534;2022-08-21T10:05:57;6.05;;;2.92;;
63320;SDS011;49449;48.800;9.534;2022-08-21T10:08:27;4.40;;;2.92;;
63320;SDS011;49449;48.800;9.534;2022-08-21T10:10:56;4.72;;;3.05;;
63320;SDS011;49449;48.800;9.534;2022-08-21T10:16:24;3.75;;;2.90;;
63320;SDS011;49449;48.800;9.534;2022-08-21T10:19:05;5.95;;;3.63;;
63320;SDS011;49449;48.800;9.534;2022-08-21T10:21:46;5.90;;;3.15;;
63320;SDS011;49449;48.800;9.534;2022-08-21T10:24:27;4.55;;;3.30;;
63320;SDS011;49449;48.800;9.534;2022-08-21T10:27:06;5.93;;;3.22;;
63320;SDS011;49449;48.800;9.534;2022-08-21T10:29:45;4.78;;;3.13;;
63320;SDS011;49449;48.800;9.534;2022-08-21T10:32:21;4.32;;;3.10;;
63320;SDS011;49449;48.800;9.534;2022-08-21T10:35:06;6.78;;;3.38;;
63320;SDS011;49449;48.800;9.534;2022-08-21T10:40:15;6.28;;;3.38;;
63320;SDS011;49449;48.800;9.534;2022-08-21T10:42:56;4.57;;;3.17;;
63320;SDS011;49449;48.800;9.534;2022-08-21T10:45:38;5.13;;;3.22;;
63320;SDS011;49449;48.800;9.534;2022-08-21T10:48:19;7.45;;;3.50;;
63320;SDS011;49449;48.800;9.534;2022-08-21T10:50:54;5.85;;;2.97;;
63320;SDS011;49449;48.800;9.534;2022-08-21T10:53:39;4.07;;;2.97;;
63320;SDS011;49449;48.800;9.534;2022-08-21T10:56:15;3.67;;;2.75;;
63320;SDS011;49449;48.800;9.534;2022-08-21T10:58:46;5.47;;;2.90;;
63320;SDS011;49449;48.800;9.534;2022-08-21T11:01:24;5.60;;;2.67;;
63320;SDS011;49449;48.800;9.534;2022-08-21T11:04:00;4.10;;;3.17;;
63320;SDS011;49449;48.800;9.534;2022-08-21T11:06:37;7.07;;;3.00;;
63320;SDS011;49449;48.800;9.534;2022-08-21T11:09:11;5.53;;;3.10;;
63320;SDS011;49449;48.800;9.534;2022-08-21T11:11:42;5.38;;;3.30;;
63320;SDS011;49449;48.800;9.534;2022-08-21T11:14:18;4.35;;;3.00;;
63320;SDS011;49449;48.800;9.534;2022-08-21T11:16:53;6.32;;;3.33;;
63320;SDS011;49449;48.800;9.534;2022-08-21T11:19:28;5.00;;;2.80;;
63320;SDS011;49449;48.800;9.534;2022-08-21T11:22:04;5.47;;;3.03;;
63320;SDS011;49449;48.800;9.534;2022-08-21T11:24:40;3.70;;;3.25;;
63320;SDS011;49449;48.800;9.534;2022-08-21T11:27:21;5.65;;;3.05;;
63320;SDS011;49449;48.800;9.534;2022-08-21T11:30:01;5.15;;;3.08;;
63320;SDS011;49449;48.800;9.534;2022-08-21T11:32:43;4.20;;;3.05;;
63320;SDS011;49449;48.800;9.534;2022-08-21T11:35:43;5.07;;;2.80;;
63320;SDS011;49449;48.800;9.534;2022-08-21T11:38:26;4.40;;;3.05;;
63320;SDS011;49449;48.800;9.534;2022-08-21T11:41:03;5.97;;;2.80;;
63320;SDS011;49449;48.800;9.534;2022-08-21T11:43:41;3.20;;;2.80;;
63320;SDS011;49449;48.800;9.534;2022-08-21T11:46:25;5.53;;;3.20;;
63320;SDS011;49449;48.800;9.534;2022-08-21T11:49:03;3.60;;;3.00;;
63320;SDS011;49449;48.800;9.534;2022-08-21T11:51:43;4.38;;;2.70;;
63320;SDS011;49449;48.800;9.534;2022-08-21T11:54:18;5.55;;;3.30;;
63320;SDS011;49449;48.800;9.534;2022-08-21T11:56:54;5.00;;;2.90;;
63320;SDS011;49449;48.800;9.534;2022-08-21T11:59:27;4.72;;;2.65;;
63320;SDS011;49449;48.800;9.534;2022-08-21T12:02:06;6.38;;;3.08;;
63320;SDS011;49449;48.800;9.534;2022-08-21T12:04:42;4.57;;;3.03;;
63320;SDS011;49449;48.800;9.534;2022-08-21T12:07:14;3.72;;;2.67;;
63320;SDS011;49449;48.800;9.534;2022-08-21T12:09:52;3.83;;;2.80;;
63320;SDS011;49449;48.800;9.534;2022-08-21T12:12:26;4.30;;;2.90;;
63320;SDS011;49449;48.800;9.534;2022-08-21T12:17:56;3.78;;;2.63;;
63320;SDS011;49449;48.800;9.534;2022-08-21T12:20:33;4.47;;;2.60;;
63320;SDS011;49449;48.800;9.534;2022-08-21T12:26:02;4.45;;;2.30;;
63320;SDS011;49449;48.800;9.534;2022-08-21T12:28:42;2.97;;;2.67;;
63320;SDS011;49449;48.800;9.534;2022-08-21T12:31:20;3.80;;;2.53;;
63320;SDS011;49449;48.800;9.534;2022-08-21T12:33:52;3.33;;;2.58;;
63320;SDS011;49449;48.800;9.534;2022-08-21T12:36:24;4.57;;;2.53;;
63320;SDS011;49449;48.800;9.534;2022-08-21T12:38:59;2.88;;;2.55;;
63320;SDS011;49449;48.800;9.534;2022-08-21T12:41:32;3.58;;;2.70;;
63320;SDS011;49449;48.800;9.534;2022-08-21T12:44:09;5.80;;;3.08;;
63320;SDS011;49449;48.800;9.534;2022-08-21T12:46:43;4.10;;;2.90;;
63320;SDS011;49449;48.800;9.534;2022-08-21T12:49:16;3.88;;;2.90;;
63320;SDS011;49449;48.800;9.534;2022-08-21T12:51:54;4.35;;;2.38;;
63320;SDS011;49449;48.800;9.534;2022-08-21T12:54:28;4.22;;;2.65;;
63320;SDS011;49449;48.800;9.534;2022-08-21T12:56:58;3.35;;;2.40;;
63320;SDS011;49449;48.800;9.534;2022-08-21T12:59:30;2.85;;;2.65;;
63320;SDS011;49449;48.800;9.534;2022-08-21T13:01:59;3.00;;;2.40;;
63320;SDS011;49449;48.800;9.534;2022-08-21T13:04:33;3.63;;;2.60;;
63320;SDS011;49449;48.800;9.534;2022-08-21T13:07:05;5.60;;;2.88;;
63320;SDS011;49449;48.800;9.534;2022-08-21T13:09:39;5.82;;;3.33;;
63320;SDS011;49449;48.800;9.534;2022-08-21T13:12:12;4.50;;;3.05;;
63320;SDS011;49449;48.800;9.534;2022-08-21T13:14:44;3.40;;;2.40;;
63320;SDS011;49449;48.800;9.534;2022-08-21T13:17:14;3.70;;;2.60;;
63320;SDS011;49449;48.800;9.534;2022-08-21T13:19:52;3.30;;;2.50;;
63320;SDS011;49449;48.800;9.534;2022-08-21T13:22:21;3.38;;;2.75;;
63320;SDS011;49449;48.800;9.534;2022-08-21T13:24:50;4.07;;;2.65;;
63320;SDS011;49449;48.800;9.534;2022-08-21T13:27:20;3.88;;;2.92;;
63320;SDS011;49449;48.800;9.534;2022-08-21T13:30:06;4.22;;;2.70;;
63320;SDS011;49449;48.800;9.534;2022-08-21T13:32:39;3.22;;;2.35;;
63320;SDS011;49449;48.800;9.534;2022-08-21T13:35:10;3.78;;;3.08;;
63320;SDS011;49449;48.800;9.534;2022-08-21T13:37:40;3.45;;;2.50;;
63320;SDS011;49449;48.800;9.534;2022-08-21T13:40:10;4.43;;;2.63;;
63320;SDS011;49449;48.800;9.534;2022-08-21T13:42:41;5.13;;;2.58;;
63320;SDS011;49449;48.800;9.534;2022-08-21T13:47:46;2.90;;;2.50;;
63320;SDS011;49449;48.800;9.534;2022-08-21T13:50:15;3.30;;;2.45;;
63320;SDS011;49449;48.800;9.534;2022-08-21T13:52:54;4.20;;;2.58;;
63320;SDS011;49449;48.800;9.534;2022-08-21T13:55:24;4.32;;;2.88;;
63320;SDS011;49449;48.800;9.534;2022-08-21T13:57:59;5.00;;;2.78;;
63320;SDS011;49449;48.800;9.534;2022-08-21T14:00:30;4.88;;;2.53;;
63320;SDS011;49449;48.800;9.534;2022-08-21T14:03:03;3.35;;;2.58;;
63320;SDS011;49449;48.800;9.534;2022-08-21T14:05:35;4.10;;;2.50;;
63320;SDS011;49449;48.800;9.534;2022-08-21T14:08:06;4.15;;;2.72;;
63320;SDS011;49449;48.800;9.534;2022-08-21T14:10:41;5.30;;;2.53;;
63320;SDS011;49449;48.800;9.534;2022-08-21T14:13:20;4.38;;;2.72;;
63320;SDS011;49449;48.800;9.534;2022-08-21T14:15:58;4.05;;;2.60;;
63320;SDS011;49449;48.800;9.534;2022-08-21T14:18:27;4.18;;;3.05;;
63320;SDS011;49449;48.800;9.534;2022-08-21T14:21:05;3.70;;;2.95;;
63320;SDS011;49449;48.800;9.534;2022-08-21T14:23:35;4.05;;;2.90;;
63320;SDS011;49449;48.800;9.534;2022-08-21T14:26:04;4.10;;;2.60;;
63320;SDS011;49449;48.800;9.534;2022-08-21T14:28:34;5.38;;;2.70;;
63320;SDS011;49449;48.800;9.534;2022-08-21T14:31:15;5.07;;;2.63;;
63320;SDS011;49449;48.800;9.534;2022-08-21T14:33:45;5.05;;;2.88;;
63320;SDS011;49449;48.800;9.534;2022-08-21T14:36:13;3.33;;;2.50;;
63320;SDS011;49449;48.800;9.534;2022-08-21T14:38:40;3.47;;;2.67;;
63320;SDS011;49449;48.800;9.534;2022-08-21T14:41:12;3.28;;;2.50;;
63320;SDS011;49449;48.800;9.534;2022-08-21T14:43:43;3.08;;;2.47;;
63320;SDS011;49449;48.800;9.534;2022-08-21T14:46:23;3.72;;;2.53;;
63320;SDS011;49449;48.800;9.534;2022-08-21T14:48:53;3.75;;;2.60;;
63320;SDS011;49449;48.800;9.534;2022-08-21T14:51:22;4.60;;;2.70;;
63320;SDS011;49449;48.800;9.534;2022-08-21T14:53:49;2.85;;;2.28;;
63320;SDS011;49449;48.800;9.534;2022-08-21T14:56:17;4.07;;;2.80;;
63320;SDS011;49449;48.800;9.534;2022-08-21T14:58:46;3.70;;;2.47;;
63320;SDS011;49449;48.800;9.534;2022-08-21T15:01:18;2.85;;;2.38;;
63320;SDS011;49449;48.800;9.534;2022-08-21T15:03:49;3.97;;;2.78;;
63320;SDS011;49449;48.800;9.534;2022-08-21T15:06:18;4.13;;;2.53;;
63320;SDS011;49449;48.800;9.534;2022-08-21T15:08:47;3.58;;;2.58;;
63320;SDS011;49449;48.800;9.534;2022-08-21T15:11:16;3.83;;;2.85;;
63320;SDS011;49449;48.800;9.534;2022-08-21T15:13:45;4.00;;;2.30;;
63320;SDS011;49449;48.800;9.534;2022-08-21T15:16:13;3.47;;;2.45;;
63320;SDS011;49449;48.800;9.534;2022-08-21T15:18:41;3.45;;;2.55;;
63320;SDS011;49449;48.800;9.534;2022-08-21T15:21:10;3.33;;;2.40;;
63320;SDS011;49449;48.800;9.534;2022-08-21T15:23:38;3.67;;;2.55;;
63320;SDS011;49449;48.800;9.534;2022-08-21T15:26:06;4.20;;;2.72;;